sensor_id;sensor_type;location;lat;lon;timestamp;temperature;humidity
9885;DHT22;4981;50.966;4.842;2023-02-03T00:02:13;9.20;1.00
9885;DHT22;4981;50.966;4.842;2023-02-03T00:04:41;9.20;1.00
9885;DHT22;4981;50.966;4.842;2023-02-03T00:07:09;10.30;1.00
9885;DHT22;4981;50.966;4.842;2023-02-03T00:09:37;8.60;1.00
9885;DHT22;4981;50.966;4.842;2023-02-03T00:12:08;8.90;1.00
9885;DHT22;4981;50.966;4.842;2023-02-03T00:14:35;9.20;1.00
9885;DHT22;4981;50.966;4.842;2023-02-03T00:17:04;9.00;1.00
9885;DHT22;4981;50.966;4.842;2023-02-03T00:19:31;9.30;1.00
9885;DHT22;4981;50.966;4.842;2023-02-03T00:21:58;9.30;1.00
9885;DHT22;4981;50.966;4.842;2023-02-03T00:24:26;9.00;1.00
9885;DHT22;4981;50.966;4.842;2023-02-03T00:26:53;9.20;1.00
9885;DHT22;4981;50.966;4.842;2023-02-03T00:29:22;8.90;1.00
9885;DHT22;4981;50.966;4.842;2023-02-03T00:31:51;9.40;1.00
9885;DHT22;4981;50.966;4.842;2023-02-03T00:34:19;9.00;1.00
9885;DHT22;4981;50.966;4.842;2023-02-03T00:36:46;9.20;1.00
9885;DHT22;4981;50.966;4.842;2023-02-03T00:39:14;9.20;1.00
9885;DHT22;4981;50.966;4.842;2023-02-03T00:41:41;8.70;1.00
9885;DHT22;4981;50.966;4.842;2023-02-03T00:46:38;9.00;1.00
9885;DHT22;4981;50.966;4.842;2023-02-03T00:56:28;9.00;1.00
9885;DHT22;4981;50.966;4.842;2023-02-03T00:58:55;9.20;1.00
9885;DHT22;4981;50.966;4.842;2023-02-03T01:01:23;9.10;1.00
9885;DHT22;4981;50.966;4.842;2023-02-03T01:03:53;8.90;1.00
9885;DHT22;4981;50.966;4.842;2023-02-03T01:06:22;9.30;1.00
9885;DHT22;4981;50.966;4.842;2023-02-03T01:08:49;9.10;1.00
9885;DHT22;4981;50.966;4.842;2023-02-03T01:11:18;9.10;1.00
9885;DHT22;4981;50.966;4.842;2023-02-03T01:13:46;9.10;1.00
9885;DHT22;4981;50.966;4.842;2023-02-03T01:16:16;8.90;1.00
9885;DHT22;4981;50.966;4.842;2023-02-03T01:18:44;9.20;1.00
9885;DHT22;4981;50.966;4.842;2023-02-03T01:21:15;9.20;1.00
9885;DHT22;4981;50.966;4.842;2023-02-03T01:23:44;9.00;1.00
9885;DHT22;4981;50.966;4.842;2023-02-03T01:26:16;9.20;1.00
9885;DHT22;4981;50.966;4.842;2023-02-03T01:28:49;9.30;1.00
9885;DHT22;4981;50.966;4.842;2023-02-03T01:31:18;9.10;1.00
9885;DHT22;4981;50.966;4.842;2023-02-03T01:33:46;8.90;1.00
9885;DHT22;4981;50.966;4.842;2023-02-03T01:36:16;9.00;1.00
9885;DHT22;4981;50.966;4.842;2023-02-03T01:38:44;9.20;1.00
9885;DHT22;4981;50.966;4.842;2023-02-03T01:41:13;9.00;1.00
9885;DHT22;4981;50.966;4.842;2023-02-03T01:43:44;9.00;1.00
9885;DHT22;4981;50.966;4.842;2023-02-03T01:51:22;9.10;1.00
9885;DHT22;4981;50.966;4.842;2023-02-03T01:56:18;9.10;1.00
9885;DHT22;4981;50.966;4.842;2023-02-03T01:58:47;9.30;1.00
9885;DHT22;4981;50.966;4.842;2023-02-03T02:01:15;9.10;1.00
9885;DHT22;4981;50.966;4.842;2023-02-03T02:03:45;9.30;1.00
9885;DHT22;4981;50.966;4.842;2023-02-03T02:06:14;9.20;1.00
9885;DHT22;4981;50.966;4.842;2023-02-03T02:08:46;9.20;1.00
9885;DHT22;4981;50.966;4.842;2023-02-03T02:11:14;9.30;1.00
9885;DHT22;4981;50.966;4.842;2023-02-03T02:13:46;9.10;1.00
9885;DHT22;4981;50.966;4.842;2023-02-03T02:16:16;9.00;1.00
9885;DHT22;4981;50.966;4.842;2023-02-03T02:19:13;9.10;1.00
9885;DHT22;4981;50.966;4.842;2023-02-03T02:21:54;9.20;1.00
9885;DHT22;4981;50.966;4.842;2023-02-03T02:27:54;9.30;1.00
9885;DHT22;4981;50.966;4.842;2023-02-03T02:31:01;9.30;1.00
9885;DHT22;4981;50.966;4.842;2023-02-03T02:33:39;9.20;1.00
9885;DHT22;4981;50.966;4.842;2023-02-03T02:36:17;9.20;1.00
9885;DHT22;4981;50.966;4.842;2023-02-03T02:38:53;9.00;1.00
9885;DHT22;4981;50.966;4.842;2023-02-03T02:41:27;9.20;1.00
9885;DHT22;4981;50.966;4.842;2023-02-03T02:43:59;9.10;1.00
9885;DHT22;4981;50.966;4.842;2023-02-03T02:46:31;8.90;1.00
9885;DHT22;4981;50.966;4.842;2023-02-03T02:51:32;9.00;1.00
9885;DHT22;4981;50.966;4.842;2023-02-03T02:54:02;9.20;1.00
9885;DHT22;4981;50.966;4.842;2023-02-03T02:59:01;9.00;1.00
9885;DHT22;4981;50.966;4.842;2023-02-03T03:01:30;9.20;1.00
9885;DHT22;4981;50.966;4.842;2023-02-03T03:03:59;9.20;1.00
9885;DHT22;4981;50.966;4.842;2023-02-03T03:06:31;8.80;1.00
9885;DHT22;4981;50.966;4.842;2023-02-03T03:09:03;9.30;1.00
9885;DHT22;4981;50.966;4.842;2023-02-03T03:11:35;9.00;1.00
9885;DHT22;4981;50.966;4.842;2023-02-03T03:14:05;8.80;1.00
9885;DHT22;4981;50.966;4.842;2023-02-03T03:16:37;9.30;1.00
9885;DHT22;4981;50.966;4.842;2023-02-03T03:19:08;9.20;1.00
9885;DHT22;4981;50.966;4.842;2023-02-03T03:21:41;9.00;1.00
9885;DHT22;4981;50.966;4.842;2023-02-03T03:24:13;10.00;1.00
9885;DHT22;4981;50.966;4.842;2023-02-03T03:26:45;9.30;1.00
9885;DHT22;4981;50.966;4.842;2023-02-03T03:29:16;9.20;1.00
9885;DHT22;4981;50.966;4.842;2023-02-03T03:31:45;9.20;1.00
9885;DHT22;4981;50.966;4.842;2023-02-03T03:34:14;9.30;1.00
9885;DHT22;4981;50.966;4.842;2023-02-03T03:36:46;9.10;1.00
9885;DHT22;4981;50.966;4.842;2023-02-03T03:39:18;9.30;1.00
9885;DHT22;4981;50.966;4.842;2023-02-03T03:41:55;9.20;1.00
9885;DHT22;4981;50.966;4.842;2023-02-03T03:44:26;9.00;1.00
9885;DHT22;4981;50.966;4.842;2023-02-03T03:47:00;9.30;1.00
9885;DHT22;4981;50.966;4.842;2023-02-03T03:49:29;9.10;1.00
9885;DHT22;4981;50.966;4.842;2023-02-03T03:52:02;9.30;1.00
9885;DHT22;4981;50.966;4.842;2023-02-03T03:54:31;9.10;1.00
9885;DHT22;4981;50.966;4.842;2023-02-03T03:57:02;9.30;1.00
9885;DHT22;4981;50.966;4.842;2023-02-03T04:02:00;9.10;1.00
9885;DHT22;4981;50.966;4.842;2023-02-03T04:06:58;9.10;1.00
9885;DHT22;4981;50.966;4.842;2023-02-03T04:09:25;9.30;1.00
9885;DHT22;4981;50.966;4.842;2023-02-03T04:14:32;9.10;1.00
9885;DHT22;4981;50.966;4.842;2023-02-03T04:19:28;9.10;1.00
9885;DHT22;4981;50.966;4.842;2023-02-03T04:21:55;9.10;1.00
9885;DHT22;4981;50.966;4.842;2023-02-03T04:24:24;9.30;1.00
9885;DHT22;4981;50.966;4.842;2023-02-03T04:26:52;9.20;1.00
9885;DHT22;4981;50.966;4.842;2023-02-03T04:29:19;9.30;1.00
9885;DHT22;4981;50.966;4.842;2023-02-03T04:31:46;9.10;1.00
9885;DHT22;4981;50.966;4.842;2023-02-03T04:34:14;9.00;1.00
9885;DHT22;4981;50.966;4.842;2023-02-03T04:36:41;9.10;1.00
9885;DHT22;4981;50.966;4.842;2023-02-03T04:39:08;9.30;1.00
9885;DHT22;4981;50.966;4.842;2023-02-03T04:41:37;8.70;1.00
9885;DHT22;4981;50.966;4.842;2023-02-03T04:44:04;9.10;1.00
9885;DHT22;4981;50.966;4.842;2023-02-03T04:49:00;9.00;1.00
9885;DHT22;4981;50.966;4.842;2023-02-03T04:53:54;9.10;1.00
9885;DHT22;4981;50.966;4.842;2023-02-03T04:56:22;9.30;1.00
9885;DHT22;4981;50.966;4.842;2023-02-03T04:58:51;9.00;1.00
9885;DHT22;4981;50.966;4.842;2023-02-03T05:01:18;9.00;1.00
9885;DHT22;4981;50.966;4.842;2023-02-03T05:03:45;9.00;1.00
9885;DHT22;4981;50.966;4.842;2023-02-03T05:06:13;9.00;1.00
9885;DHT22;4981;50.966;4.842;2023-02-03T05:08:40;9.00;1.00
9885;DHT22;4981;50.966;4.842;2023-02-03T05:11:07;9.10;1.00
9885;DHT22;4981;50.966;4.842;2023-02-03T05:13:34;9.20;1.00
9885;DHT22;4981;50.966;4.842;2023-02-03T05:16:04;9.10;1.00
9885;DHT22;4981;50.966;4.842;2023-02-03T05:18:31;9.00;1.00
9885;DHT22;4981;50.966;4.842;2023-02-03T05:20:58;9.30;1.00
9885;DHT22;4981;50.966;4.842;2023-02-03T05:23:26;9.30;1.00
9885;DHT22;4981;50.966;4.842;2023-02-03T05:25:53;9.30;1.00
9885;DHT22;4981;50.966;4.842;2023-02-03T05:28:20;9.30;1.00
9885;DHT22;4981;50.966;4.842;2023-02-03T05:30:48;9.50;1.00
9885;DHT22;4981;50.966;4.842;2023-02-03T05:35:44;9.10;1.00
9885;DHT22;4981;50.966;4.842;2023-02-03T05:38:11;9.30;1.00
9885;DHT22;4981;50.966;4.842;2023-02-03T05:40:38;9.00;1.00
9885;DHT22;4981;50.966;4.842;2023-02-03T05:43:23;9.50;1.00
9885;DHT22;4981;50.966;4.842;2023-02-03T05:48:19;9.10;1.00
9885;DHT22;4981;50.966;4.842;2023-02-03T05:50:47;9.30;1.00
9885;DHT22;4981;50.966;4.842;2023-02-03T05:55:41;9.10;1.00
9885;DHT22;4981;50.966;4.842;2023-02-03T06:00:36;9.10;1.00
9885;DHT22;4981;50.966;4.842;2023-02-03T06:05:33;9.00;1.00
9885;DHT22;4981;50.966;4.842;2023-02-03T06:08:05;9.00;1.00
9885;DHT22;4981;50.966;4.842;2023-02-03T06:13:08;9.10;1.00
9885;DHT22;4981;50.966;4.842;2023-02-03T06:15:36;9.00;1.00
9885;DHT22;4981;50.966;4.842;2023-02-03T06:18:03;9.00;1.00
9885;DHT22;4981;50.966;4.842;2023-02-03T06:20:31;8.70;1.00
9885;DHT22;4981;50.966;4.842;2023-02-03T06:25:27;9.10;1.00
9885;DHT22;4981;50.966;4.842;2023-02-03T06:27:56;9.10;1.00
9885;DHT22;4981;50.966;4.842;2023-02-03T06:30:24;9.30;1.00
9885;DHT22;4981;50.966;4.842;2023-02-03T06:32:51;9.10;1.00
9885;DHT22;4981;50.966;4.842;2023-02-03T06:35:18;9.30;1.00
9885;DHT22;4981;50.966;4.842;2023-02-03T06:37:46;9.90;1.00
9885;DHT22;4981;50.966;4.842;2023-02-03T06:40:15;9.30;1.00
9885;DHT22;4981;50.966;4.842;2023-02-03T06:42:44;9.10;1.00
9885;DHT22;4981;50.966;4.842;2023-02-03T06:45:13;9.10;1.00
9885;DHT22;4981;50.966;4.842;2023-02-03T06:47:40;9.20;1.00
9885;DHT22;4981;50.966;4.842;2023-02-03T06:50:09;9.20;1.00
9885;DHT22;4981;50.966;4.842;2023-02-03T06:52:37;9.40;1.00
9885;DHT22;4981;50.966;4.842;2023-02-03T06:55:05;9.10;1.00
9885;DHT22;4981;50.966;4.842;2023-02-03T06:57:34;9.40;1.00
9885;DHT22;4981;50.966;4.842;2023-02-03T07:00:02;9.10;1.00
9885;DHT22;4981;50.966;4.842;2023-02-03T07:02:29;9.10;1.00
9885;DHT22;4981;50.966;4.842;2023-02-03T07:04:56;9.20;1.00
9885;DHT22;4981;50.966;4.842;2023-02-03T07:07:24;9.20;1.00
9885;DHT22;4981;50.966;4.842;2023-02-03T07:09:51;9.10;1.00
9885;DHT22;4981;50.966;4.842;2023-02-03T07:12:18;9.40;1.00
9885;DHT22;4981;50.966;4.842;2023-02-03T07:14:47;9.10;1.00
9885;DHT22;4981;50.966;4.842;2023-02-03T07:17:14;9.00;1.00
9885;DHT22;4981;50.966;4.842;2023-02-03T07:22:09;9.10;1.00
9885;DHT22;4981;50.966;4.842;2023-02-03T07:24:37;9.50;1.00
9885;DHT22;4981;50.966;4.842;2023-02-03T07:27:04;10.20;1.00
9885;DHT22;4981;50.966;4.842;2023-02-03T07:29:31;9.30;1.00
9885;DHT22;4981;50.966;4.842;2023-02-03T07:32:00;9.10;1.00
9885;DHT22;4981;50.966;4.842;2023-02-03T07:34:28;9.10;1.00
9885;DHT22;4981;50.966;4.842;2023-02-03T07:36:55;9.40;1.00
9885;DHT22;4981;50.966;4.842;2023-02-03T07:41:50;9.20;1.00
9885;DHT22;4981;50.966;4.842;2023-02-03T07:44:17;9.40;1.00
9885;DHT22;4981;50.966;4.842;2023-02-03T07:46:45;9.40;1.00
9885;DHT22;4981;50.966;4.842;2023-02-03T07:49:14;9.20;1.00
9885;DHT22;4981;50.966;4.842;2023-02-03T07:54:08;9.30;1.00
9885;DHT22;4981;50.966;4.842;2023-02-03T07:56:36;9.20;1.00
9885;DHT22;4981;50.966;4.842;2023-02-03T08:01:31;9.30;1.00
9885;DHT22;4981;50.966;4.842;2023-02-03T08:03:58;9.30;1.00
9885;DHT22;4981;50.966;4.842;2023-02-03T08:06:31;9.40;1.00
9885;DHT22;4981;50.966;4.842;2023-02-03T08:11:26;9.30;1.00
9885;DHT22;4981;50.966;4.842;2023-02-03T08:16:21;9.30;1.00
9885;DHT22;4981;50.966;4.842;2023-02-03T08:18:48;9.50;1.00
9885;DHT22;4981;50.966;4.842;2023-02-03T08:21:15;9.60;1.00
9885;DHT22;4981;50.966;4.842;2023-02-03T08:23:44;9.40;1.00
9885;DHT22;4981;50.966;4.842;2023-02-03T08:31:10;9.50;1.00
9885;DHT22;4981;50.966;4.842;2023-02-03T08:33:37;9.60;1.00
9885;DHT22;4981;50.966;4.842;2023-02-03T08:36:05;9.40;1.00
9885;DHT22;4981;50.966;4.842;2023-02-03T08:38:33;10.00;1.00
9885;DHT22;4981;50.966;4.842;2023-02-03T08:41:07;9.50;1.00
9885;DHT22;4981;50.966;4.842;2023-02-03T08:43:37;9.50;1.00
9885;DHT22;4981;50.966;4.842;2023-02-03T08:46:06;9.50;1.00
9885;DHT22;4981;50.966;4.842;2023-02-03T08:48:34;9.50;1.00
9885;DHT22;4981;50.966;4.842;2023-02-03T08:51:13;9.70;1.00
9885;DHT22;4981;50.966;4.842;2023-02-03T08:56:11;9.50;1.00
9885;DHT22;4981;50.966;4.842;2023-02-03T08:58:39;9.40;1.00
9885;DHT22;4981;50.966;4.842;2023-02-03T09:01:08;9.80;1.00
9885;DHT22;4981;50.966;4.842;2023-02-03T09:03:36;9.50;1.00
9885;DHT22;4981;50.966;4.842;2023-02-03T09:06:04;9.60;1.00
9885;DHT22;4981;50.966;4.842;2023-02-03T09:08:32;9.70;1.00
9885;DHT22;4981;50.966;4.842;2023-02-03T09:11:00;9.60;1.00
9885;DHT22;4981;50.966;4.842;2023-02-03T09:13:29;9.40;1.00
9885;DHT22;4981;50.966;4.842;2023-02-03T09:15:59;9.70;1.00
9885;DHT22;4981;50.966;4.842;2023-02-03T09:18:26;9.50;1.00
9885;DHT22;4981;50.966;4.842;2023-02-03T09:20:59;9.50;1.00
9885;DHT22;4981;50.966;4.842;2023-02-03T09:23:27;9.50;1.00
9885;DHT22;4981;50.966;4.842;2023-02-03T09:25:54;9.60;1.00
9885;DHT22;4981;50.966;4.842;2023-02-03T09:28:21;9.70;1.00
9885;DHT22;4981;50.966;4.842;2023-02-03T09:33:18;9.50;1.00
9885;DHT22;4981;50.966;4.842;2023-02-03T09:35:51;9.50;1.00
9885;DHT22;4981;50.966;4.842;2023-02-03T09:38:18;9.70;1.00
9885;DHT22;4981;50.966;4.842;2023-02-03T09:40:48;9.60;1.00
9885;DHT22;4981;50.966;4.842;2023-02-03T09:43:28;9.60;1.00
9885;DHT22;4981;50.966;4.842;2023-02-03T09:46:02;9.50;1.00
9885;DHT22;4981;50.966;4.842;2023-02-03T09:48:35;9.80;1.00
9885;DHT22;4981;50.966;4.842;2023-02-03T09:51:07;10.20;1.00
9885;DHT22;4981;50.966;4.842;2023-02-03T09:53:46;9.60;1.00
9885;DHT22;4981;50.966;4.842;2023-02-03T09:56:22;9.80;1.00
9885;DHT22;4981;50.966;4.842;2023-02-03T09:58:53;10.00;1.00
9885;DHT22;4981;50.966;4.842;2023-02-03T10:03:54;9.70;1.00
9885;DHT22;4981;50.966;4.842;2023-02-03T10:06:31;9.70;1.00
9885;DHT22;4981;50.966;4.842;2023-02-03T10:09:29;9.60;1.00
9885;DHT22;4981;50.966;4.842;2023-02-03T10:14:48;9.70;1.00
9885;DHT22;4981;50.966;4.842;2023-02-03T10:17:26;9.70;1.00
9885;DHT22;4981;50.966;4.842;2023-02-03T10:20:00;9.90;1.00
9885;DHT22;4981;50.966;4.842;2023-02-03T10:27:28;9.80;1.00
9885;DHT22;4981;50.966;4.842;2023-02-03T10:29:59;9.80;1.00
9885;DHT22;4981;50.966;4.842;2023-02-03T10:32:30;9.80;1.00
9885;DHT22;4981;50.966;4.842;2023-02-03T10:37:33;9.90;1.00
9885;DHT22;4981;50.966;4.842;2023-02-03T11:26:11;10.00;1.00
9885;DHT22;4981;50.966;4.842;2023-02-03T11:28:42;10.20;1.00
9885;DHT22;4981;50.966;4.842;2023-02-03T11:36:19;10.10;1.00
9885;DHT22;4981;50.966;4.842;2023-02-03T11:41:16;10.00;1.00
9885;DHT22;4981;50.966;4.842;2023-02-03T11:46:12;10.00;1.00
9885;DHT22;4981;50.966;4.842;2023-02-03T11:48:50;10.00;1.00
9885;DHT22;4981;50.966;4.842;2023-02-03T11:51:28;9.70;1.00
9885;DHT22;4981;50.966;4.842;2023-02-03T11:54:13;9.90;1.00
9885;DHT22;4981;50.966;4.842;2023-02-03T11:56:58;10.10;1.00
9885;DHT22;4981;50.966;4.842;2023-02-03T11:59:41;9.90;1.00
9885;DHT22;4981;50.966;4.842;2023-02-03T12:02:59;10.10;1.00
9885;DHT22;4981;50.966;4.842;2023-02-03T12:05:41;9.80;1.00
9885;DHT22;4981;50.966;4.842;2023-02-03T12:08:26;9.90;1.00
9885;DHT22;4981;50.966;4.842;2023-02-03T12:11:04;10.10;1.00
9885;DHT22;4981;50.966;4.842;2023-02-03T12:13:46;10.00;1.00
9885;DHT22;4981;50.966;4.842;2023-02-03T12:16:30;9.90;1.00
9885;DHT22;4981;50.966;4.842;2023-02-03T12:19:10;9.90;1.00
9885;DHT22;4981;50.966;4.842;2023-02-03T12:21:43;9.90;1.00
9885;DHT22;4981;50.966;4.842;2023-02-03T12:27:13;9.90;1.00
9885;DHT22;4981;50.966;4.842;2023-02-03T12:29:46;9.90;1.00
9885;DHT22;4981;50.966;4.842;2023-02-03T12:32:22;9.90;1.00
9885;DHT22;4981;50.966;4.842;2023-02-03T12:34:54;10.10;1.00
9885;DHT22;4981;50.966;4.842;2023-02-03T12:37:25;10.10;1.00
9885;DHT22;4981;50.966;4.842;2023-02-03T12:39:57;10.10;1.00
9885;DHT22;4981;50.966;4.842;2023-02-03T12:42:28;10.20;1.00
9885;DHT22;4981;50.966;4.842;2023-02-03T12:45:00;10.20;1.00
9885;DHT22;4981;50.966;4.842;2023-02-03T12:47:33;10.10;1.00
9885;DHT22;4981;50.966;4.842;2023-02-03T12:52:35;9.50;1.00
9885;DHT22;4981;50.966;4.842;2023-02-03T12:55:19;10.10;1.00
9885;DHT22;4981;50.966;4.842;2023-02-03T12:57:51;10.10;1.00
9885;DHT22;4981;50.966;4.842;2023-02-03T13:00:33;10.00;1.00
9885;DHT22;4981;50.966;4.842;2023-02-03T13:03:10;10.00;1.00
9885;DHT22;4981;50.966;4.842;2023-02-03T13:05:44;10.30;1.00
9885;DHT22;4981;50.966;4.842;2023-02-03T13:08:19;10.20;1.00
9885;DHT22;4981;50.966;4.842;2023-02-03T13:10:52;10.10;1.00
9885;DHT22;4981;50.966;4.842;2023-02-03T13:13:28;10.30;1.00
9885;DHT22;4981;50.966;4.842;2023-02-03T13:15:57;10.20;1.00
9885;DHT22;4981;50.966;4.842;2023-02-03T13:18:30;10.40;1.00
9885;DHT22;4981;50.966;4.842;2023-02-03T13:20:58;10.40;1.00
9885;DHT22;4981;50.966;4.842;2023-02-03T13:23:26;10.30;1.00
9885;DHT22;4981;50.966;4.842;2023-02-03T13:26:30;10.50;1.00
9885;DHT22;4981;50.966;4.842;2023-02-03T13:29:29;10.30;1.00
9885;DHT22;4981;50.966;4.842;2023-02-03T13:34:41;10.40;1.00
9885;DHT22;4981;50.966;4.842;2023-02-03T13:40:12;10.70;1.00
9885;DHT22;4981;50.966;4.842;2023-02-03T13:42:45;10.30;1.00
9885;DHT22;4981;50.966;4.842;2023-02-03T13:45:21;10.30;1.00
9885;DHT22;4981;50.966;4.842;2023-02-03T13:50:21;10.50;1.00
9885;DHT22;4981;50.966;4.842;2023-02-03T13:52:56;10.80;1.00
9885;DHT22;4981;50.966;4.842;2023-02-03T13:55:30;11.40;1.00
9885;DHT22;4981;50.966;4.842;2023-02-03T13:58:01;10.60;1.00
9885;DHT22;4981;50.966;4.842;2023-02-03T14:05:45;10.40;1.00
9885;DHT22;4981;50.966;4.842;2023-02-03T14:11:40;10.40;1.00
9885;DHT22;4981;50.966;4.842;2023-02-03T14:17:55;10.70;1.00
9885;DHT22;4981;50.966;4.842;2023-02-03T14:23:18;10.50;1.00
9885;DHT22;4981;50.966;4.842;2023-02-03T14:25:49;10.60;1.00
9885;DHT22;4981;50.966;4.842;2023-02-03T14:34:05;10.70;1.00
9885;DHT22;4981;50.966;4.842;2023-02-03T14:41:58;10.60;1.00
9885;DHT22;4981;50.966;4.842;2023-02-03T14:44:33;10.50;1.00
9885;DHT22;4981;50.966;4.842;2023-02-03T14:47:20;10.50;1.00
9885;DHT22;4981;50.966;4.842;2023-02-03T14:50:11;10.70;1.00
9885;DHT22;4981;50.966;4.842;2023-02-03T14:58:12;10.50;1.00
9885;DHT22;4981;50.966;4.842;2023-02-03T15:00:41;10.70;1.00
9885;DHT22;4981;50.966;4.842;2023-02-03T15:03:32;10.90;1.00
9885;DHT22;4981;50.966;4.842;2023-02-03T15:06:03;10.50;1.00
9885;DHT22;4981;50.966;4.842;2023-02-03T15:08:34;10.50;1.00
9885;DHT22;4981;50.966;4.842;2023-02-03T15:11:22;10.50;1.00
9885;DHT22;4981;50.966;4.842;2023-02-03T15:13:50;10.50;1.00
9885;DHT22;4981;50.966;4.842;2023-02-03T15:16:19;10.60;1.00
9885;DHT22;4981;50.966;4.842;2023-02-03T15:18:53;10.70;1.00
9885;DHT22;4981;50.966;4.842;2023-02-03T15:21:23;10.50;1.00
9885;DHT22;4981;50.966;4.842;2023-02-03T15:23:51;10.50;1.00
9885;DHT22;4981;50.966;4.842;2023-02-03T15:26:20;10.50;1.00
9885;DHT22;4981;50.966;4.842;2023-02-03T15:28:55;10.50;1.00
9885;DHT22;4981;50.966;4.842;2023-02-03T15:31:28;10.50;1.00
9885;DHT22;4981;50.966;4.842;2023-02-03T15:34:03;10.40;1.00
9885;DHT22;4981;50.966;4.842;2023-02-03T15:36:38;10.60;1.00
9885;DHT22;4981;50.966;4.842;2023-02-03T15:39:17;10.70;1.00
9885;DHT22;4981;50.966;4.842;2023-02-03T15:41:49;10.60;1.00
9885;DHT22;4981;50.966;4.842;2023-02-03T15:44:26;10.70;1.00
9885;DHT22;4981;50.966;4.842;2023-02-03T15:46:53;11.40;1.00
9885;DHT22;4981;50.966;4.842;2023-02-03T15:49:25;10.80;1.00
9885;DHT22;4981;50.966;4.842;2023-02-03T15:51:57;10.50;1.00
9885;DHT22;4981;50.966;4.842;2023-02-03T15:57:06;10.40;1.00
9885;DHT22;4981;50.966;4.842;2023-02-03T15:59:37;10.60;1.00
9885;DHT22;4981;50.966;4.842;2023-02-03T16:02:15;10.50;1.00
9885;DHT22;4981;50.966;4.842;2023-02-03T16:04:44;10.40;1.00
9885;DHT22;4981;50.966;4.842;2023-02-03T16:07:17;10.60;1.00
9885;DHT22;4981;50.966;4.842;2023-02-03T16:09:51;9.90;1.00
9885;DHT22;4981;50.966;4.842;2023-02-03T16:12:22;10.50;1.00
9885;DHT22;4981;50.966;4.842;2023-02-03T16:14:51;10.40;1.00
9885;DHT22;4981;50.966;4.842;2023-02-03T16:17:24;10.30;1.00
9885;DHT22;4981;50.966;4.842;2023-02-03T16:20:25;10.40;1.00
9885;DHT22;4981;50.966;4.842;2023-02-03T16:23:04;10.50;1.00
9885;DHT22;4981;50.966;4.842;2023-02-03T16:30:54;10.20;1.00
9885;DHT22;4981;50.966;4.842;2023-02-03T16:33:44;10.40;1.00
9885;DHT22;4981;50.966;4.842;2023-02-03T16:39:15;10.10;1.00
9885;DHT22;4981;50.966;4.842;2023-02-03T16:42:00;10.10;1.00
9885;DHT22;4981;50.966;4.842;2023-02-03T16:44:50;10.30;1.00
9885;DHT22;4981;50.966;4.842;2023-02-03T16:47:37;10.10;1.00
9885;DHT22;4981;50.966;4.842;2023-02-03T16:53:12;10.10;1.00
9885;DHT22;4981;50.966;4.842;2023-02-03T16:58:10;10.10;1.00
9885;DHT22;4981;50.966;4.842;2023-02-03T17:00:37;10.10;1.00
9885;DHT22;4981;50.966;4.842;2023-02-03T17:03:06;10.30;1.00
9885;DHT22;4981;50.966;4.842;2023-02-03T17:05:35;10.00;1.00
9885;DHT22;4981;50.966;4.842;2023-02-03T17:15:29;10.00;1.00
9885;DHT22;4981;50.966;4.842;2023-02-03T17:20:24;9.80;1.00
9885;DHT22;4981;50.966;4.842;2023-02-03T17:22:52;9.80;1.00
9885;DHT22;4981;50.966;4.842;2023-02-03T17:25:20;9.90;1.00
9885;DHT22;4981;50.966;4.842;2023-02-03T17:27:47;9.90;1.00
9885;DHT22;4981;50.966;4.842;2023-02-03T17:30:16;9.90;1.00
9885;DHT22;4981;50.966;4.842;2023-02-03T17:35:12;9.90;1.00
9885;DHT22;4981;50.966;4.842;2023-02-03T17:37:40;9.80;1.00
9885;DHT22;4981;50.966;4.842;2023-02-03T17:40:08;9.90;1.00
9885;DHT22;4981;50.966;4.842;2023-02-03T17:42:37;9.80;1.00
9885;DHT22;4981;50.966;4.842;2023-02-03T17:45:05;10.00;1.00
9885;DHT22;4981;50.966;4.842;2023-02-03T17:50:04;9.80;1.00
9885;DHT22;4981;50.966;4.842;2023-02-03T17:52:33;9.80;1.00
9885;DHT22;4981;50.966;4.842;2023-02-03T17:55:02;9.90;1.00
9885;DHT22;4981;50.966;4.842;2023-02-03T17:59:58;9.80;1.00
9885;DHT22;4981;50.966;4.842;2023-02-03T18:02:25;10.00;1.00
9885;DHT22;4981;50.966;4.842;2023-02-03T18:04:54;9.80;1.00
9885;DHT22;4981;50.966;4.842;2023-02-03T18:12:18;9.80;1.00
9885;DHT22;4981;50.966;4.842;2023-02-03T18:19:41;9.80;1.00
9885;DHT22;4981;50.966;4.842;2023-02-03T18:22:10;10.20;1.00
9885;DHT22;4981;50.966;4.842;2023-02-03T18:24:39;9.90;1.00
9885;DHT22;4981;50.966;4.842;2023-02-03T18:27:09;9.70;1.00
9885;DHT22;4981;50.966;4.842;2023-02-03T18:29:43;9.80;1.00
9885;DHT22;4981;50.966;4.842;2023-02-03T18:32:10;9.80;1.00
9885;DHT22;4981;50.966;4.842;2023-02-03T18:42:03;9.80;1.00
9885;DHT22;4981;50.966;4.842;2023-02-03T18:44:31;9.80;1.00
9885;DHT22;4981;50.966;4.842;2023-02-03T18:46:59;9.90;1.00
9885;DHT22;4981;50.966;4.842;2023-02-03T18:49:32;10.00;1.00
9885;DHT22;4981;50.966;4.842;2023-02-03T18:52:00;9.80;1.00
9885;DHT22;4981;50.966;4.842;2023-02-03T18:56:57;9.80;1.00
9885;DHT22;4981;50.966;4.842;2023-02-03T18:59:25;9.60;1.00
9885;DHT22;4981;50.966;4.842;2023-02-03T19:01:52;11.10;1.00
9885;DHT22;4981;50.966;4.842;2023-02-03T19:04:20;9.70;1.00
9885;DHT22;4981;50.966;4.842;2023-02-03T19:11:46;9.80;1.00
9885;DHT22;4981;50.966;4.842;2023-02-03T19:14:16;9.80;1.00
9885;DHT22;4981;50.966;4.842;2023-02-03T19:21:42;9.70;1.00
9885;DHT22;4981;50.966;4.842;2023-02-03T19:26:39;9.80;1.00
9885;DHT22;4981;50.966;4.842;2023-02-03T19:29:07;9.70;1.00
9885;DHT22;4981;50.966;4.842;2023-02-03T19:31:36;9.70;1.00
9885;DHT22;4981;50.966;4.842;2023-02-03T19:34:03;10.00;1.00
9885;DHT22;4981;50.966;4.842;2023-02-03T19:38:59;9.80;1.00
9885;DHT22;4981;50.966;4.842;2023-02-03T19:41:28;9.90;1.00
9885;DHT22;4981;50.966;4.842;2023-02-03T19:43:58;10.20;1.00
9885;DHT22;4981;50.966;4.842;2023-02-03T19:46:27;10.00;1.00
9885;DHT22;4981;50.966;4.842;2023-02-03T19:51:32;9.80;1.00
9885;DHT22;4981;50.966;4.842;2023-02-03T19:54:01;9.80;1.00
9885;DHT22;4981;50.966;4.842;2023-02-03T19:56:29;9.60;1.00
9885;DHT22;4981;50.966;4.842;2023-02-03T19:58:57;9.60;1.00
9885;DHT22;4981;50.966;4.842;2023-02-03T20:01:27;9.50;1.00
9885;DHT22;4981;50.966;4.842;2023-02-03T20:03:55;9.70;1.00
9885;DHT22;4981;50.966;4.842;2023-02-03T20:06:26;9.50;1.00
9885;DHT22;4981;50.966;4.842;2023-02-03T20:08:56;9.70;1.00
9885;DHT22;4981;50.966;4.842;2023-02-03T20:11:25;9.50;1.00
9885;DHT22;4981;50.966;4.842;2023-02-03T20:13:52;9.70;1.00
9885;DHT22;4981;50.966;4.842;2023-02-03T20:16:20;9.70;1.00
9885;DHT22;4981;50.966;4.842;2023-02-03T20:18:47;9.70;1.00
9885;DHT22;4981;50.966;4.842;2023-02-03T20:21:15;9.50;1.00
9885;DHT22;4981;50.966;4.842;2023-02-03T20:23:44;9.50;1.00
9885;DHT22;4981;50.966;4.842;2023-02-03T20:26:13;9.30;1.00
9885;DHT22;4981;50.966;4.842;2023-02-03T20:28:41;9.40;1.00
9885;DHT22;4981;50.966;4.842;2023-02-03T20:33:41;9.20;1.00
9885;DHT22;4981;50.966;4.842;2023-02-03T20:36:09;9.30;1.00
9885;DHT22;4981;50.966;4.842;2023-02-03T20:38:38;9.30;1.00
9885;DHT22;4981;50.966;4.842;2023-02-03T20:41:10;8.90;1.00
9885;DHT22;4981;50.966;4.842;2023-02-03T20:46:10;9.00;1.00
9885;DHT22;4981;50.966;4.842;2023-02-03T20:48:39;9.20;1.00
9885;DHT22;4981;50.966;4.842;2023-02-03T20:51:09;9.00;1.00
9885;DHT22;4981;50.966;4.842;2023-02-03T20:53:39;8.90;1.00
9885;DHT22;4981;50.966;4.842;2023-02-03T20:56:13;8.90;1.00
9885;DHT22;4981;50.966;4.842;2023-02-03T21:01:14;8.10;1.00
9885;DHT22;4981;50.966;4.842;2023-02-03T21:03:41;9.00;1.00
9885;DHT22;4981;50.966;4.842;2023-02-03T21:06:28;8.70;1.00
9885;DHT22;4981;50.966;4.842;2023-02-03T21:11:28;8.90;1.00
9885;DHT22;4981;50.966;4.842;2023-02-03T21:13:55;8.70;1.00
9885;DHT22;4981;50.966;4.842;2023-02-03T21:18:54;8.70;1.00
9885;DHT22;4981;50.966;4.842;2023-02-03T21:21:27;8.70;1.00
9885;DHT22;4981;50.966;4.842;2023-02-03T21:23:54;8.90;12.50
9885;DHT22;4981;50.966;4.842;2023-02-03T21:26:25;8.70;3.80
9885;DHT22;4981;50.966;4.842;2023-02-03T21:28:54;8.70;5.70
9885;DHT22;4981;50.966;4.842;2023-02-03T21:31:24;8.70;1.00
9885;DHT22;4981;50.966;4.842;2023-02-03T21:36:22;8.70;14.50
9885;DHT22;4981;50.966;4.842;2023-02-03T21:38:51;8.80;1.00